createdAt,value
2018-08-23T00:00:21.044Z,1008.30
2018-08-23T00:01:22.426Z,1008.30
2018-08-23T00:02:23.812Z,1008.31
2018-08-23T00:03:25.204Z,1008.34
2018-08-23T00:04:26.583Z,1008.33
2018-08-23T00:05:27.962Z,1008.35
2018-08-23T00:06:29.349Z,1008.31
2018-08-23T00:07:30.732Z,1008.35
2018-08-23T00:08:32.123Z,1008.35
2018-08-23T00:09:33.543Z,1008.33
2018-08-23T00:10:34.910Z,1008.34
2018-08-23T00:11:36.276Z,1008.32
2018-08-23T00:12:37.668Z,1008.34
2018-08-23T00:13:39.055Z,1008.34
2018-08-23T00:14:40.443Z,1008.30
2018-08-23T00:15:41.837Z,1008.29
2018-08-23T00:16:43.252Z,1008.31
2018-08-23T00:17:44.597Z,1008.29
2018-08-23T00:18:45.989Z,1008.30
2018-08-23T00:19:47.374Z,1008.27
2018-08-23T00:20:48.757Z,1008.32
2018-08-23T00:21:50.131Z,1008.26
2018-08-23T00:22:51.531Z,1008.20
2018-08-23T00:23:52.909Z,1008.21
2018-08-23T00:24:54.292Z,1008.26
2018-08-23T00:25:55.675Z,1008.23
2018-08-23T00:26:57.075Z,1008.21
2018-08-23T00:27:58.455Z,1008.20
2018-08-23T00:28:59.847Z,1008.17
2018-08-23T00:30:01.237Z,1008.13
2018-08-23T00:31:02.624Z,1008.13
2018-08-23T00:32:04.004Z,1008.16
2018-08-23T00:33:05.384Z,1008.12
2018-08-23T00:34:06.762Z,1008.16
2018-08-23T00:35:08.152Z,1008.11
2018-08-23T00:36:09.538Z,1008.10
2018-08-23T00:37:10.920Z,1008.08
2018-08-23T00:38:12.312Z,1008.06
2018-08-23T00:39:13.693Z,1008.07
2018-08-23T00:40:15.081Z,1008.03
2018-08-23T00:41:16.466Z,1008.02
2018-08-23T00:42:17.855Z,1007.97
2018-08-23T00:43:19.246Z,1007.99
2018-08-23T00:44:20.625Z,1007.98
2018-08-23T00:45:22.013Z,1007.95
2018-08-23T00:46:23.405Z,1007.94
2018-08-23T00:47:24.785Z,1007.97
2018-08-23T00:48:26.162Z,1007.94
2018-08-23T00:49:27.545Z,1007.96
2018-08-23T00:50:28.938Z,1007.94
2018-08-23T00:51:30.326Z,1007.94
2018-08-23T00:52:31.706Z,1007.97
2018-08-23T00:53:33.092Z,1007.98
2018-08-23T00:54:34.476Z,1007.97
2018-08-23T00:55:35.868Z,1007.94
2018-08-23T00:56:37.249Z,1007.94
2018-08-23T00:57:38.626Z,1007.98
2018-08-23T00:58:40.018Z,1007.95
2018-08-23T00:59:41.413Z,1007.96
2018-08-23T01:00:42.790Z,1007.91
2018-08-23T01:01:44.175Z,1007.91
2018-08-23T01:02:45.558Z,1007.91
2018-08-23T01:03:46.952Z,1007.91
2018-08-23T01:04:48.344Z,1007.93
2018-08-23T01:05:49.720Z,1007.90
2018-08-23T01:06:51.103Z,1007.90
2018-08-23T01:07:52.495Z,1007.88
2018-08-23T01:08:53.899Z,1007.88
2018-08-23T01:09:55.295Z,1007.90
2018-08-23T01:10:56.683Z,1007.89
2018-08-23T01:11:58.074Z,1007.89
2018-08-23T01:12:59.468Z,1007.92
2018-08-23T01:14:00.858Z,1007.90
2018-08-23T01:15:02.238Z,1007.89
2018-08-23T01:16:03.629Z,1007.86
2018-08-23T01:17:05.148Z,1007.89
2018-08-23T01:18:06.412Z,1007.84
2018-08-23T01:19:07.788Z,1007.87
2018-08-23T01:20:09.170Z,1007.82
2018-08-23T01:21:10.559Z,1007.80
2018-08-23T01:22:11.940Z,1007.79
2018-08-23T01:23:13.332Z,1007.80
2018-08-23T01:24:14.716Z,1007.78
2018-08-23T01:25:16.110Z,1007.74
2018-08-23T01:26:17.494Z,1007.79
2018-08-23T01:27:18.879Z,1007.79
2018-08-23T01:28:20.264Z,1007.76
2018-08-23T01:29:21.655Z,1007.75
2018-08-23T01:30:23.038Z,1007.77
2018-08-23T01:31:24.432Z,1007.74
2018-08-23T01:32:25.817Z,1007.73
2018-08-23T01:33:27.221Z,1007.74
2018-08-23T01:34:28.599Z,1007.74
2018-08-23T01:35:29.970Z,1007.72
2018-08-23T01:36:31.362Z,1007.70
2018-08-23T01:37:32.739Z,1007.67
2018-08-23T01:38:34.129Z,1007.70
2018-08-23T01:39:35.517Z,1007.68
2018-08-23T01:40:36.897Z,1007.69
2018-08-23T01:41:38.276Z,1007.66
2018-08-23T01:42:39.663Z,1007.67
2018-08-23T01:43:41.050Z,1007.63
2018-08-23T01:44:42.439Z,1007.66
2018-08-23T01:45:43.832Z,1007.62
2018-08-23T01:46:45.221Z,1007.63
2018-08-23T01:47:46.612Z,1007.63
2018-08-23T01:48:47.986Z,1007.60
2018-08-23T01:49:49.375Z,1007.61
2018-08-23T01:50:50.762Z,1007.57
2018-08-23T01:51:52.150Z,1007.59
2018-08-23T01:52:53.535Z,1007.61
2018-08-23T01:53:54.918Z,1007.56
2018-08-23T01:54:56.300Z,1007.55
2018-08-23T01:55:57.684Z,1007.54
2018-08-23T01:56:59.074Z,1007.59
2018-08-23T01:58:00.467Z,1007.54
2018-08-23T01:59:01.843Z,1007.53
2018-08-23T02:00:03.223Z,1007.49
2018-08-23T02:01:04.605Z,1007.50
2018-08-23T02:02:05.993Z,1007.45
2018-08-23T02:03:07.372Z,1007.47
2018-08-23T02:04:08.758Z,1007.48
2018-08-23T02:05:10.153Z,1007.46
2018-08-23T02:06:11.537Z,1007.44
2018-08-23T02:07:12.930Z,1007.41
2018-08-23T02:08:14.331Z,1007.40
2018-08-23T02:09:15.725Z,1007.40
2018-08-23T02:10:17.101Z,1007.39
2018-08-23T02:11:18.499Z,1007.40
2018-08-23T02:12:19.887Z,1007.40
2018-08-23T02:13:21.280Z,1007.35
2018-08-23T02:14:22.669Z,1007.35
2018-08-23T02:15:24.065Z,1007.35
2018-08-23T02:16:25.441Z,1007.33
2018-08-23T02:17:26.836Z,1007.35
2018-08-23T02:18:28.215Z,1007.35
2018-08-23T02:19:29.600Z,1007.29
2018-08-23T02:20:30.982Z,1007.33
2018-08-23T02:21:32.330Z,1007.29
2018-08-23T02:22:33.714Z,1007.28
2018-08-23T02:23:35.092Z,1007.27
2018-08-23T02:24:37.011Z,1007.30
2018-08-23T02:25:38.392Z,1007.29
2018-08-23T02:26:39.780Z,1007.26
2018-08-23T02:27:41.157Z,1007.28
2018-08-23T02:28:42.542Z,1007.28
2018-08-23T02:29:43.929Z,1007.22
2018-08-23T02:30:45.321Z,1007.23
2018-08-23T02:31:46.704Z,1007.15
2018-08-23T02:32:48.089Z,1007.16
2018-08-23T02:33:49.491Z,1007.17
2018-08-23T02:34:50.873Z,1007.18
2018-08-23T02:35:52.270Z,1007.16
2018-08-23T02:36:53.652Z,1007.14
2018-08-23T02:37:55.029Z,1007.10
2018-08-23T02:38:56.416Z,1007.15
2018-08-23T02:39:57.805Z,1007.13
2018-08-23T02:40:59.193Z,1007.13
2018-08-23T02:42:00.578Z,1007.13
2018-08-23T02:43:01.966Z,1007.13
2018-08-23T02:44:03.372Z,1007.13
2018-08-23T02:45:04.734Z,1007.11
2018-08-23T02:46:06.124Z,1007.12
2018-08-23T02:47:07.504Z,1007.10
2018-08-23T02:48:08.893Z,1007.08
2018-08-23T02:49:10.282Z,1007.08
2018-08-23T02:50:11.668Z,1007.11
2018-08-23T02:51:13.057Z,1007.06
2018-08-23T02:52:14.444Z,1007.06
2018-08-23T02:53:15.834Z,1007.10
2018-08-23T02:54:17.213Z,1007.08
2018-08-23T02:55:18.595Z,1007.08
2018-08-23T02:56:19.979Z,1007.05
2018-08-23T02:57:21.362Z,1007.05
2018-08-23T02:58:22.752Z,1007.06
2018-08-23T02:59:24.137Z,1007.04
2018-08-23T03:00:25.533Z,1007.04
2018-08-23T03:01:26.901Z,1007.04
2018-08-23T03:02:28.283Z,1007.03
2018-08-23T03:03:29.689Z,1007.04
2018-08-23T03:04:31.078Z,1007.03
2018-08-23T03:05:32.465Z,1007.06
2018-08-23T03:06:33.866Z,1007.06
2018-08-23T03:07:35.246Z,1007.04
2018-08-23T03:08:36.626Z,1007.04
2018-08-23T03:09:38.013Z,1007.03
2018-08-23T03:10:39.414Z,1007.05
2018-08-23T03:11:40.792Z,1007.04
2018-08-23T03:12:42.184Z,1007.03
2018-08-23T03:13:44.458Z,1007.04
2018-08-23T03:14:45.836Z,1007.03
2018-08-23T03:15:47.228Z,1007.04
2018-08-23T03:16:48.610Z,1007.06
2018-08-23T03:17:50.009Z,1007.08
2018-08-23T03:18:51.396Z,1007.03
2018-08-23T03:19:52.785Z,1007.01
2018-08-23T03:20:54.166Z,1006.98
2018-08-23T03:21:55.554Z,1007.00
2018-08-23T03:22:56.947Z,1006.95
2018-08-23T03:23:58.335Z,1006.97
2018-08-23T03:24:59.713Z,1006.97
2018-08-23T03:26:01.101Z,1006.94
2018-08-23T03:27:02.481Z,1006.93
2018-08-23T03:28:03.863Z,1006.92
2018-08-23T03:29:05.245Z,1006.92
2018-08-23T03:30:06.632Z,1006.87
2018-08-23T03:31:08.018Z,1006.90
2018-08-23T03:32:09.412Z,1006.88
2018-08-23T03:33:10.787Z,1006.88
2018-08-23T03:34:12.174Z,1006.86
2018-08-23T03:35:13.569Z,1006.91
2018-08-23T03:36:14.949Z,1006.86
2018-08-23T03:37:16.332Z,1006.86
2018-08-23T03:38:17.724Z,1006.85
2018-08-23T03:39:19.108Z,1006.81
2018-08-23T03:40:20.498Z,1006.82
2018-08-23T03:41:21.873Z,1006.78
2018-08-23T03:42:23.264Z,1006.82
2018-08-23T03:43:24.646Z,1006.77
2018-08-23T03:44:26.038Z,1006.78
2018-08-23T03:45:27.429Z,1006.79
2018-08-23T03:46:28.807Z,1006.73
2018-08-23T03:47:30.195Z,1006.72
2018-08-23T03:48:31.583Z,1006.71
2018-08-23T03:49:32.969Z,1006.73
2018-08-23T03:50:34.357Z,1006.72
2018-08-23T03:51:35.747Z,1006.75
2018-08-23T03:52:37.216Z,1006.73
2018-08-23T03:53:38.517Z,1006.70
2018-08-23T03:54:39.908Z,1006.75
2018-08-23T03:55:41.302Z,1006.72
2018-08-23T03:56:42.673Z,1006.75
2018-08-23T03:57:44.064Z,1006.73
2018-08-23T03:58:45.456Z,1006.76
2018-08-23T03:59:46.852Z,1006.76
2018-08-23T04:00:48.237Z,1006.79
2018-08-23T04:01:49.624Z,1006.79
2018-08-23T04:02:51.017Z,1006.78
2018-08-23T04:03:52.400Z,1006.78
2018-08-23T04:04:53.782Z,1006.80
2018-08-23T04:05:55.160Z,1006.78
2018-08-23T04:06:56.545Z,1006.79
2018-08-23T04:07:57.936Z,1006.72
2018-08-23T04:08:59.312Z,1006.77
2018-08-23T04:10:00.706Z,1006.73
2018-08-23T04:11:02.092Z,1006.78
2018-08-23T04:12:03.481Z,1006.79
2018-08-23T04:13:04.862Z,1006.83
2018-08-23T04:14:06.242Z,1006.84
2018-08-23T04:15:07.639Z,1006.88
2018-08-23T04:16:09.029Z,1006.89
2018-08-23T04:17:10.415Z,1006.88
2018-08-23T04:18:11.811Z,1006.87
2018-08-23T04:19:13.198Z,1006.84
2018-08-23T04:20:14.588Z,1006.87
2018-08-23T04:21:15.968Z,1006.85
2018-08-23T04:22:17.357Z,1006.84
2018-08-23T04:23:18.749Z,1006.83
2018-08-23T04:24:20.139Z,1006.87
2018-08-23T04:25:21.524Z,1006.83
2018-08-23T04:26:22.914Z,1006.82
2018-08-23T04:27:24.301Z,1006.80
2018-08-23T04:28:25.693Z,1006.85
2018-08-23T04:29:27.800Z,1006.84
2018-08-23T04:30:29.189Z,1006.87
2018-08-23T04:31:30.576Z,1006.87
2018-08-23T04:32:31.982Z,1006.87
2018-08-23T04:33:33.374Z,1006.87
2018-08-23T04:34:34.763Z,1006.90
2018-08-23T04:35:36.149Z,1006.89
2018-08-23T04:36:37.540Z,1006.85
2018-08-23T04:37:38.927Z,1006.87
2018-08-23T04:38:40.316Z,1006.81
2018-08-23T04:39:41.712Z,1006.84
2018-08-23T04:40:43.089Z,1006.80
2018-08-23T04:41:44.483Z,1006.80
2018-08-23T04:42:45.864Z,1006.80
2018-08-23T04:43:47.257Z,1006.82
2018-08-23T04:44:48.648Z,1006.83
2018-08-23T04:45:50.042Z,1006.85
2018-08-23T04:46:51.425Z,1006.85
2018-08-23T04:47:52.808Z,1006.86
2018-08-23T04:48:54.208Z,1006.81
2018-08-23T04:49:55.591Z,1006.80
2018-08-23T04:50:56.981Z,1006.84
2018-08-23T04:51:58.364Z,1006.81
2018-08-23T04:52:59.757Z,1006.81
2018-08-23T04:54:01.145Z,1006.80
2018-08-23T04:55:02.536Z,1006.80
2018-08-23T04:56:03.924Z,1006.83
2018-08-23T04:57:05.326Z,1006.82
2018-08-23T04:58:06.720Z,1006.79
2018-08-23T04:59:08.102Z,1006.80
2018-08-23T05:00:09.489Z,1006.81
2018-08-23T05:01:10.876Z,1006.77
2018-08-23T05:02:12.267Z,1006.76
2018-08-23T05:03:13.670Z,1006.73
2018-08-23T05:04:15.062Z,1006.75
2018-08-23T05:05:16.446Z,1006.71
2018-08-23T05:06:17.838Z,1006.71
2018-08-23T05:07:19.230Z,1006.71
2018-08-23T05:08:20.623Z,1006.69
2018-08-23T05:09:22.002Z,1006.71
2018-08-23T05:10:23.399Z,1006.73
2018-08-23T05:11:24.778Z,1006.67
2018-08-23T05:12:26.172Z,1006.70
2018-08-23T05:13:27.559Z,1006.71
2018-08-23T05:14:28.941Z,1006.68
2018-08-23T05:15:30.327Z,1006.66
2018-08-23T05:16:31.713Z,1006.66
2018-08-23T05:17:33.103Z,1006.68
2018-08-23T05:18:34.496Z,1006.63
2018-08-23T05:19:35.879Z,1006.62
2018-08-23T05:20:37.265Z,1006.64
2018-08-23T05:21:38.664Z,1006.66
2018-08-23T05:22:40.047Z,1006.63
2018-08-23T05:23:41.437Z,1006.63
2018-08-23T05:24:42.822Z,1006.61
2018-08-23T05:25:44.209Z,1006.59
2018-08-23T05:26:45.593Z,1006.62
2018-08-23T05:27:46.990Z,1006.65
2018-08-23T05:28:48.369Z,1006.62
2018-08-23T05:29:49.771Z,1006.60
2018-08-23T05:30:51.152Z,1006.59
2018-08-23T05:31:52.534Z,1006.57
2018-08-23T05:32:53.922Z,1006.57
2018-08-23T05:33:55.310Z,1006.57
2018-08-23T05:34:56.704Z,1006.56
2018-08-23T05:35:58.098Z,1006.55
2018-08-23T05:36:59.486Z,1006.59
2018-08-23T05:38:00.865Z,1006.58
2018-08-23T05:39:02.265Z,1006.58
2018-08-23T05:40:03.648Z,1006.57
2018-08-23T05:41:05.038Z,1006.58
2018-08-23T05:42:06.423Z,1006.54
2018-08-23T05:43:07.813Z,1006.55
2018-08-23T05:44:09.201Z,1006.55
2018-08-23T05:45:10.590Z,1006.55
2018-08-23T05:46:11.981Z,1006.55
2018-08-23T05:47:13.377Z,1006.55
2018-08-23T05:48:14.763Z,1006.51
2018-08-23T05:49:16.146Z,1006.47
2018-08-23T05:50:17.537Z,1006.47
2018-08-23T05:51:18.970Z,1006.45
2018-08-23T05:52:20.978Z,1006.45
2018-08-23T05:53:22.850Z,1006.42
2018-08-23T05:54:24.248Z,1006.41
2018-08-23T05:55:25.649Z,1006.42
2018-08-23T05:56:27.070Z,1006.44
2018-08-23T05:57:28.470Z,1006.38
2018-08-23T05:58:29.928Z,1006.40
2018-08-23T05:59:31.301Z,1006.42
2018-08-23T06:00:32.732Z,1006.36
2018-08-23T06:01:34.150Z,1006.40
2018-08-23T06:02:35.563Z,1006.36
2018-08-23T06:03:36.956Z,1006.36
2018-08-23T06:04:38.345Z,1006.36
2018-08-23T06:05:39.733Z,1006.36
2018-08-23T06:06:41.124Z,1006.38
2018-08-23T06:07:42.516Z,1006.38
2018-08-23T06:08:43.914Z,1006.35
2018-08-23T06:09:45.303Z,1006.36
2018-08-23T06:10:46.700Z,1006.36
2018-08-23T06:11:48.083Z,1006.33
2018-08-23T06:12:49.479Z,1006.33
2018-08-23T06:13:50.875Z,1006.32
2018-08-23T06:14:52.261Z,1006.32
2018-08-23T06:15:53.659Z,1006.30
2018-08-23T06:16:55.044Z,1006.32
2018-08-23T06:17:56.437Z,1006.32
2018-08-23T06:18:57.820Z,1006.27
2018-08-23T06:19:59.241Z,1006.28
2018-08-23T06:21:00.632Z,1006.29
2018-08-23T06:22:02.020Z,1006.29
2018-08-23T06:23:03.415Z,1006.29
2018-08-23T06:24:04.809Z,1006.28
2018-08-23T06:25:06.196Z,1006.28
2018-08-23T06:26:07.583Z,1006.29
2018-08-23T06:27:08.968Z,1006.28
2018-08-23T06:28:10.368Z,1006.22
2018-08-23T06:29:11.750Z,1006.26
2018-08-23T06:30:13.150Z,1006.22
2018-08-23T06:31:14.540Z,1006.22
2018-08-23T06:32:15.930Z,1006.23
2018-08-23T06:33:17.455Z,1006.19
2018-08-23T06:34:18.714Z,1006.28
2018-08-23T06:35:20.107Z,1006.21
2018-08-23T06:36:21.495Z,1006.30
2018-08-23T06:37:22.890Z,1006.25
2018-08-23T06:38:24.291Z,1006.22
2018-08-23T06:39:25.692Z,1006.23
2018-08-23T06:40:27.086Z,1006.21
2018-08-23T06:41:28.487Z,1006.25
2018-08-23T06:42:29.877Z,1006.24
2018-08-23T06:43:31.273Z,1006.24
2018-08-23T06:44:32.707Z,1006.22
2018-08-23T06:45:34.065Z,1006.17
2018-08-23T06:46:35.456Z,1006.18
2018-08-23T06:47:36.853Z,1006.18
2018-08-23T06:48:38.237Z,1006.16
2018-08-23T06:49:39.637Z,1006.14
2018-08-23T06:50:41.044Z,1006.09
2018-08-23T06:51:42.433Z,1006.11
2018-08-23T06:52:43.816Z,1006.07
2018-08-23T06:53:45.210Z,1006.06
2018-08-23T06:54:46.601Z,1006.06
2018-08-23T06:55:48.000Z,1006.06
2018-08-23T06:56:49.382Z,1006.06
2018-08-23T06:57:50.784Z,1006.04
2018-08-23T06:58:52.199Z,1006.09
2018-08-23T06:59:53.577Z,1006.07
2018-08-23T07:00:54.975Z,1006.07
2018-08-23T07:01:56.368Z,1006.07
2018-08-23T07:02:57.770Z,1006.04
2018-08-23T07:03:59.159Z,1006.03
2018-08-23T07:05:00.549Z,1006.01
2018-08-23T07:06:01.954Z,1005.99
2018-08-23T07:07:03.369Z,1006.03
2018-08-23T07:08:04.773Z,1005.96
2018-08-23T07:09:06.164Z,1005.96
2018-08-23T07:10:07.576Z,1005.95
2018-08-23T07:11:08.982Z,1005.92
2018-08-23T07:12:10.389Z,1005.97
2018-08-23T07:13:11.781Z,1005.95
2018-08-23T07:14:13.161Z,1005.96
2018-08-23T07:15:14.568Z,1005.92
2018-08-23T07:16:15.964Z,1005.91
2018-08-23T07:17:17.455Z,1005.89
2018-08-23T07:18:18.765Z,1005.90
2018-08-23T07:19:20.245Z,1005.94
2018-08-23T07:20:21.628Z,1005.92
2018-08-23T07:21:23.024Z,1005.86
2018-08-23T07:22:24.921Z,1005.91
2018-08-23T07:23:26.313Z,1005.89
2018-08-23T07:24:29.534Z,1005.92
2018-08-23T07:25:30.935Z,1005.87
2018-08-23T07:26:32.329Z,1005.85
2018-08-23T07:27:33.728Z,1005.86
2018-08-23T07:28:35.116Z,1005.86
2018-08-23T07:29:36.506Z,1005.85
2018-08-23T07:30:37.897Z,1005.86
2018-08-23T07:31:39.296Z,1005.85
2018-08-23T07:32:40.689Z,1005.85
2018-08-23T07:33:42.093Z,1005.85
2018-08-23T07:34:43.497Z,1005.86
2018-08-23T07:35:44.891Z,1005.86
2018-08-23T07:36:46.276Z,1005.87
2018-08-23T07:37:47.697Z,1005.85
2018-08-23T07:38:49.075Z,1005.83
2018-08-23T07:39:50.467Z,1005.83
2018-08-23T07:40:51.875Z,1005.84
2018-08-23T07:41:53.268Z,1005.78
2018-08-23T07:42:54.675Z,1005.81
2018-08-23T07:43:56.059Z,1005.81
2018-08-23T07:44:57.456Z,1005.81
2018-08-23T07:45:58.854Z,1005.77
2018-08-23T07:47:00.256Z,1005.79
2018-08-23T07:48:01.646Z,1005.81
2018-08-23T07:49:03.073Z,1005.78
2018-08-23T07:50:04.450Z,1005.78
2018-08-23T07:51:05.839Z,1005.81
2018-08-23T07:52:07.232Z,1005.78
2018-08-23T07:53:08.722Z,1005.78
2018-08-23T07:54:10.029Z,1005.79
2018-08-23T07:55:11.427Z,1005.75
2018-08-23T07:56:12.817Z,1005.78
2018-08-23T07:57:14.210Z,1005.78
2018-08-23T07:58:15.611Z,1005.80
2018-08-23T07:59:17.167Z,1005.76
2018-08-23T08:00:18.550Z,1005.75
2018-08-23T08:01:19.960Z,1005.77
2018-08-23T08:02:21.353Z,1005.73
2018-08-23T08:03:22.756Z,1005.71
2018-08-23T08:04:24.150Z,1005.69
2018-08-23T08:05:25.544Z,1005.70
2018-08-23T08:06:26.939Z,1005.70
2018-08-23T08:07:28.338Z,1005.71
2018-08-23T08:08:29.727Z,1005.72
2018-08-23T08:09:31.125Z,1005.72
2018-08-23T08:10:32.521Z,1005.72
2018-08-23T08:11:33.908Z,1005.77
2018-08-23T08:12:35.313Z,1005.72
2018-08-23T08:13:36.706Z,1005.77
2018-08-23T08:14:38.109Z,1005.73
2018-08-23T08:15:39.496Z,1005.74
2018-08-23T08:16:40.906Z,1005.72
2018-08-23T08:17:42.309Z,1005.78
2018-08-23T08:18:43.693Z,1005.77
2018-08-23T08:19:45.944Z,1005.78
2018-08-23T08:20:47.342Z,1005.76
2018-08-23T08:21:48.729Z,1005.78
2018-08-23T08:22:50.137Z,1005.76
2018-08-23T08:23:51.520Z,1005.74
2018-08-23T08:24:52.920Z,1005.78
2018-08-23T08:25:54.311Z,1005.78
2018-08-23T08:26:55.713Z,1005.76
2018-08-23T08:27:57.108Z,1005.77
2018-08-23T08:28:58.512Z,1005.76
2018-08-23T08:29:59.911Z,1005.78
2018-08-23T08:31:01.375Z,1005.82
2018-08-23T08:32:02.710Z,1005.80
2018-08-23T08:33:04.125Z,1005.80
2018-08-23T08:34:05.505Z,1005.77
2018-08-23T08:35:06.899Z,1005.73
2018-08-23T08:36:08.303Z,1005.79
2018-08-23T08:37:09.706Z,1005.76
2018-08-23T08:38:11.090Z,1005.82
2018-08-23T08:39:12.492Z,1005.74
2018-08-23T08:40:13.894Z,1005.73
2018-08-23T08:41:15.290Z,1005.72
2018-08-23T08:42:16.692Z,1005.73
2018-08-23T08:43:18.096Z,1005.64
2018-08-23T08:44:19.498Z,1005.65
2018-08-23T08:45:20.901Z,1005.67
2018-08-23T08:46:22.296Z,1005.71
2018-08-23T08:47:23.687Z,1005.66
2018-08-23T08:48:25.079Z,1005.64
2018-08-23T08:49:26.470Z,1005.66
2018-08-23T08:50:27.913Z,1005.62
2018-08-23T08:51:29.275Z,1005.58
2018-08-23T08:52:30.671Z,1005.57
2018-08-23T08:53:32.084Z,1005.56
2018-08-23T08:54:33.475Z,1005.52
2018-08-23T08:55:34.890Z,1005.52
2018-08-23T08:56:36.324Z,1005.54
2018-08-23T08:57:37.704Z,1005.48
2018-08-23T08:58:39.083Z,1005.48
2018-08-23T08:59:40.478Z,1005.46
2018-08-23T09:00:41.882Z,1005.46
2018-08-23T09:01:43.309Z,1005.41
2018-08-23T09:02:44.736Z,1005.49
2018-08-23T09:03:46.160Z,1005.42
2018-08-23T09:04:47.566Z,1005.41
2018-08-23T09:05:48.988Z,1005.40
2018-08-23T09:06:50.405Z,1005.38
2018-08-23T09:07:51.808Z,1005.42
2018-08-23T09:08:53.224Z,1005.38
2018-08-23T09:09:54.664Z,1005.39
2018-08-23T09:10:55.991Z,1005.38
2018-08-23T09:11:57.463Z,1005.39
2018-08-23T09:12:58.866Z,1005.34
2018-08-23T09:14:00.274Z,1005.34
2018-08-23T09:15:01.705Z,1005.34
2018-08-23T09:16:03.105Z,1005.32
2018-08-23T09:17:04.506Z,1005.31
2018-08-23T09:18:06.299Z,1005.30
2018-08-23T09:19:07.652Z,1005.30
2018-08-23T09:20:09.065Z,1005.30
2018-08-23T09:21:10.463Z,1005.29
2018-08-23T09:22:11.867Z,1005.28
2018-08-23T09:23:13.267Z,1005.17
2018-08-23T09:24:14.659Z,1005.24
2018-08-23T09:25:16.078Z,1005.24
2018-08-23T09:26:17.457Z,1005.25
2018-08-23T09:27:18.962Z,1005.21
2018-08-23T09:28:20.270Z,1005.20
2018-08-23T09:29:21.679Z,1005.12
2018-08-23T09:30:23.094Z,1005.16
2018-08-23T09:31:24.508Z,1005.17
2018-08-23T09:32:25.924Z,1005.12
2018-08-23T09:33:27.321Z,1005.10
2018-08-23T09:34:28.712Z,1005.14
2018-08-23T09:35:30.129Z,1005.14
2018-08-23T09:36:31.510Z,1005.18
2018-08-23T09:37:32.920Z,1005.14
2018-08-23T09:38:34.323Z,1005.09
2018-08-23T09:39:35.718Z,1005.12
2018-08-23T09:40:37.110Z,1005.12
2018-08-23T09:41:38.544Z,1005.10
2018-08-23T09:42:39.925Z,1005.06
2018-08-23T09:43:41.320Z,1004.99
2018-08-23T09:44:42.735Z,1004.98
2018-08-23T09:45:44.147Z,1004.99
2018-08-23T09:46:45.537Z,1004.98
2018-08-23T09:47:46.939Z,1005.02
2018-08-23T09:48:48.335Z,1005.00
2018-08-23T09:49:49.746Z,1004.98
2018-08-23T09:50:51.234Z,1005.05
2018-08-23T09:51:52.552Z,1004.97
2018-08-23T09:52:53.953Z,1005.00
2018-08-23T09:53:55.358Z,1004.99
2018-08-23T09:54:56.750Z,1004.92
2018-08-23T09:55:58.160Z,1004.94
2018-08-23T09:56:59.563Z,1004.86
2018-08-23T09:58:00.967Z,1004.82
2018-08-23T09:59:02.369Z,1004.82
2018-08-23T10:00:03.777Z,1004.84
2018-08-23T10:01:05.172Z,1004.86
2018-08-23T10:02:06.565Z,1004.81
2018-08-23T10:03:07.966Z,1004.87
2018-08-23T10:04:09.387Z,1004.82
2018-08-23T10:05:10.776Z,1004.76
2018-08-23T10:06:12.746Z,1004.72
2018-08-23T10:07:13.512Z,1004.69
2018-08-23T10:08:14.918Z,1004.76
2018-08-23T10:09:16.352Z,1004.74
2018-08-23T10:10:17.717Z,1004.76
2018-08-23T10:11:19.173Z,1004.73
2018-08-23T10:12:20.530Z,1004.69
2018-08-23T10:13:21.940Z,1004.67
2018-08-23T10:14:23.342Z,1004.64
2018-08-23T10:15:24.747Z,1004.66
2018-08-23T10:16:26.151Z,1004.63
2018-08-23T10:17:27.543Z,1004.63
2018-08-23T10:18:28.953Z,1004.61
2018-08-23T10:19:30.361Z,1004.62
2018-08-23T10:20:31.756Z,1004.58
2018-08-23T10:21:33.151Z,1004.49
2018-08-23T10:22:34.552Z,1004.58
2018-08-23T10:23:35.961Z,1004.60
2018-08-23T10:24:38.035Z,1004.58
2018-08-23T10:25:39.939Z,1004.59
2018-08-23T10:26:42.254Z,1004.62
2018-08-23T10:27:43.503Z,1004.54
2018-08-23T10:28:44.915Z,1004.49
2018-08-23T10:29:46.312Z,1004.56
2018-08-23T10:30:47.723Z,1004.56
2018-08-23T10:31:49.117Z,1004.55
2018-08-23T10:32:50.522Z,1004.57
2018-08-23T10:33:51.935Z,1004.53
2018-08-23T10:34:53.344Z,1004.46
2018-08-23T10:35:54.752Z,1004.45
2018-08-23T10:36:56.138Z,1004.41
2018-08-23T10:37:57.530Z,1004.40
2018-08-23T10:38:58.931Z,1004.45
2018-08-23T10:40:00.344Z,1004.36
2018-08-23T10:41:01.737Z,1004.36
2018-08-23T10:42:03.143Z,1004.35
2018-08-23T10:43:04.552Z,1004.33
2018-08-23T10:44:06.013Z,1004.34
2018-08-23T10:45:07.370Z,1004.32
2018-08-23T10:46:08.779Z,1004.29
2018-08-23T10:47:10.176Z,1004.34
2018-08-23T10:48:11.572Z,1004.28
2018-08-23T10:49:12.976Z,1004.30
2018-08-23T10:50:14.375Z,1004.34
2018-08-23T10:51:15.767Z,1004.32
2018-08-23T10:52:17.187Z,1004.32
2018-08-23T10:53:18.625Z,1004.30
2018-08-23T10:54:20.014Z,1004.31
2018-08-23T10:55:21.413Z,1004.34
2018-08-23T10:56:22.813Z,1004.29
2018-08-23T10:57:24.226Z,1004.31
2018-08-23T10:58:25.624Z,1004.23
2018-08-23T10:59:27.040Z,1004.22
2018-08-23T11:00:28.456Z,1004.23
2018-08-23T11:01:29.858Z,1004.24
2018-08-23T11:02:31.270Z,1004.25
2018-08-23T11:03:32.677Z,1004.22
2018-08-23T11:04:34.081Z,1004.19
2018-08-23T11:05:35.499Z,1004.23
2018-08-23T11:06:36.908Z,1004.16
2018-08-23T11:07:38.326Z,1004.13
2018-08-23T11:08:39.716Z,1004.13
2018-08-23T11:09:41.152Z,1004.10
2018-08-23T11:10:42.546Z,1004.07
2018-08-23T11:11:43.952Z,1004.04
2018-08-23T11:12:45.357Z,1004.00
2018-08-23T11:13:46.768Z,1003.99
2018-08-23T11:14:48.168Z,1003.99
2018-08-23T11:15:49.569Z,1004.01
2018-08-23T11:16:51.011Z,1004.06
2018-08-23T11:17:52.342Z,1003.98
2018-08-23T11:18:53.737Z,1003.98
2018-08-23T11:19:55.149Z,1003.97
2018-08-23T11:20:56.547Z,1003.95
2018-08-23T11:21:57.957Z,1003.93
2018-08-23T11:22:59.389Z,1003.87
2018-08-23T11:24:00.779Z,1003.88
2018-08-23T11:25:02.210Z,1003.89
2018-08-23T11:26:03.610Z,1003.96
2018-08-23T11:27:05.014Z,1003.90
2018-08-23T11:28:06.420Z,1003.89
2018-08-23T11:29:07.835Z,1003.87
2018-08-23T11:30:09.247Z,1003.85
2018-08-23T11:31:10.647Z,1003.79
2018-08-23T11:32:12.058Z,1003.91
2018-08-23T11:33:13.460Z,1003.80
2018-08-23T11:34:14.860Z,1003.78
2018-08-23T11:35:16.313Z,1003.79
2018-08-23T11:36:17.618Z,1003.81
2018-08-23T11:37:19.033Z,1003.78
2018-08-23T11:38:20.427Z,1003.74
2018-08-23T11:39:21.834Z,1003.71
2018-08-23T11:40:23.242Z,1003.70
2018-08-23T11:41:24.648Z,1003.74
2018-08-23T11:42:26.139Z,1003.70
2018-08-23T11:43:27.557Z,1003.70
2018-08-23T11:44:28.961Z,1003.73
2018-08-23T11:45:30.358Z,1003.67
2018-08-23T11:46:31.766Z,1003.62
2018-08-23T11:47:33.169Z,1003.79
2018-08-23T11:48:34.575Z,1003.69
2018-08-23T11:49:35.976Z,1003.71
2018-08-23T11:50:37.367Z,1003.64
2018-08-23T11:51:38.774Z,1003.57
2018-08-23T11:52:40.173Z,1003.63
2018-08-23T11:53:41.663Z,1003.59
2018-08-23T11:54:42.972Z,1003.59
2018-08-23T11:55:44.374Z,1003.61
2018-08-23T11:56:45.778Z,1003.54
2018-08-23T11:57:47.185Z,1003.55
2018-08-23T11:58:48.578Z,1003.52
2018-08-23T11:59:49.978Z,1003.47
2018-08-23T12:00:51.378Z,1003.55
2018-08-23T12:01:52.803Z,1003.55
2018-08-23T12:02:54.204Z,1003.47
2018-08-23T12:03:55.633Z,1003.46
2018-08-23T12:04:57.023Z,1003.41
2018-08-23T12:05:58.432Z,1003.39
2018-08-23T12:06:59.838Z,1003.45
2018-08-23T12:08:01.243Z,1003.50
2018-08-23T12:09:02.637Z,1003.48
2018-08-23T12:10:04.043Z,1003.41
2018-08-23T12:11:05.447Z,1003.38
2018-08-23T12:12:07.697Z,1003.46
2018-08-23T12:13:09.108Z,1003.37
2018-08-23T12:14:10.502Z,1003.34
2018-08-23T12:15:11.915Z,1003.32
2018-08-23T12:16:13.306Z,1003.32
2018-08-23T12:17:14.707Z,1003.35
2018-08-23T12:18:16.113Z,1003.32
2018-08-23T12:19:17.507Z,1003.26
2018-08-23T12:20:18.913Z,1003.25
2018-08-23T12:21:20.306Z,1003.24
2018-08-23T12:22:21.708Z,1003.18